Geokinetics Inc (NASDAQOTH:GEOKQ)

CAPS Rating: 2 out of 5

The Company is a global provider of seismic data acquisition services in land, marsh and swamp and shallow water environments to the oil and natural gas industry.

Results 1 - 99 of 119 : 1 2 Next »
Top
Pick
Member Name Member
Rating
Start
Date
Call Time
Frame
Start
Price
Stock
Gain
Index
Gain
Score Commentary
artcorvelay < 20 5/14/2012 Outperform 1Y $1.32 -99.43% +58.59% -158.02 0 Comment
MoneyPlusSport < 20 1/25/2012 Underperform 5Y $2.00 -99.62% +62.27% +161.89 0 Comment
jdparksASI < 20 9/7/2011 Outperform 5Y $4.60 -99.84% +77.46% -177.30 0 Comment
GreenHillFarAway 28.66 8/22/2011 Outperform 5Y $3.99 -99.81% +88.21% -188.02 0 Comment
Rehydrogenated 32.22 3/29/2011 Outperform 5Y $8.68 -99.91% +62.45% -162.36 0 Comment
2011Fool 99.43 3/25/2011 Outperform NS $8.99 -99.92% +62.29% -162.21 0 Comment
LEGMAKER < 20 2/28/2011 Outperform 5Y $10.59 -99.93% +60.36% -160.29 0 Comment
hcve < 20 1/12/2011 Outperform 3W $9.41 -99.92% +66.29% -166.21 0 Comment
MagicMaggie < 20 12/7/2010 Outperform 5Y $9.35 -99.92% +71.85% -171.77 0 Comment
OberHund < 20 12/6/2010 Outperform 5Y $9.29 -99.92% +73.69% -173.60 0 Comment
tiger6667 < 20 12/1/2010 Outperform 5Y $8.51 -99.91% +77.20% -177.11 0 Comment
bullinnature 94.44 11/9/2009 11/8/2010 Outperform 3Y $12.72 -99.94% +97.30% -197.25 0 Comment
cletedinero < 20 10/18/2010 Outperform 5Y $7.31 -99.90% +80.35% -180.24 0 Comment
brilin 62.50 10/4/2010 Outperform 5Y $6.00 -99.88% +86.23% -186.10 0 Comment
smallandmidcap 97.16 8/10/2010 Underperform 5Y $4.51 -99.83% +90.12% +189.95 0 Comment
roth450 33.68 7/20/2010 Outperform NS $3.99 -99.81% +101.18% -200.99 0 Comment
EffinObama < 20 7/19/2010 Outperform 3Y $4.06 -99.82% +99.77% -199.58 0 Comment
thisyearslosers < 20 6/29/2010 Outperform 5Y $4.12 -99.82% +103.55% -203.36 0 Comment
startunderfive < 20 6/28/2010 Outperform 5Y $4.49 -99.83% +97.80% -197.63 0 Comment
institutionsdown 52.88 6/22/2010 Outperform 5Y $4.88 -99.85% +91.18% -191.02 0 Comment
obsoleteaccount < 20 6/21/2010 Outperform 5Y $4.91 -99.85% +91.67% -191.51 0 Comment
jroren 99.34 6/21/2010 Underperform 3M $5.36 -99.86% +88.29% +188.15 0 Comment
iddqkfyou < 20 5/11/2010 Outperform 5Y $6.30 -99.88% +85.10% -184.98 1 Comment
asitka 27.46 5/3/2010 Outperform 1Y $8.74 -99.91% +78.41% -178.33 0 Comment
Genomac 39.05 4/26/2010 Outperform 5Y $9.58 -99.92% +74.80% -174.72 0 Comment
HotDdogv2 < 20 4/26/2010 Outperform 5Y $9.58 -99.92% +74.80% -174.72 0 Comment
aliuce 31.07 4/23/2010 Outperform NS $9.53 -99.92% +75.62% -175.54 0 Comment
iamvoltron 25.45 4/22/2010 Outperform 5Y $8.47 -99.91% +77.77% -177.68 0 Comment
markantonythe3rd 31.06 4/20/2010 Outperform 5Y $8.21 -99.91% +76.61% -176.52 0 Comment
dashark44 94.59 4/19/2010 Outperform 5Y $7.81 -99.90% +79.31% -179.22 0 Comment
Powderiver < 20 4/12/2010 Outperform 5Y $7.94 -99.91% +77.89% -177.80 0 Comment
manjux < 20 4/1/2010 Underperform 3M $7.32 -99.90% +80.76% +180.66 0 Comment
blue2fire < 20 3/22/2010 Outperform 5Y $7.39 -99.90% +84.71% -184.61 0 Comment
StThomasMoreEsq2 95.81 12/29/2009 2/19/2010 Outperform 3M $9.89 -99.92% +88.96% -188.88 0 Comment
HasOrHasNot 27.43 1/28/2010 Outperform 3Y $10.04 -99.93% +93.26% -193.18 0 Comment
FreeMortal 29.06 1/20/2010 Outperform 5Y $10.34 -99.93% +87.57% -187.50 0 Comment
StGiannaMolla < 20 1/11/2010 Outperform 5Y $10.53 -99.93% +85.60% -185.52 0 Comment
Clockworker < 20 1/6/2010 Outperform 5Y $9.84 -99.92% +87.51% -187.43 0 Comment
TMFPlatoish 97.00 12/16/2009 Outperform 5Y $9.27 -99.92% +90.22% -190.14 0 Comment
chinneymartin 79.20 11/13/2009 Outperform 5Y $13.20 -99.94% +93.77% -193.71 0 Comment
wkcgx2 < 20 11/9/2009 Outperform 5Y $13.18 -99.94% +96.24% -196.18 0 Comment
outperformONLY < 20 10/19/2009 Outperform 5Y $19.49 -99.96% +95.28% -195.24 0 Comment
pennycruncher 66.62 10/19/2009 Outperform 5Y $19.49 -99.96% +95.28% -195.24 0 Comment
GIGManager < 20 10/8/2009 Outperform 3Y $19.24 -99.96% +99.48% -199.45 0 Comment
TotalStrange 96.29 8/12/2009 Outperform 1Y $14.58 -99.95% +112.42% -212.36 0 Comment
jddubya < 20 6/5/2009 Outperform 5Y $14.81 -99.95% +127.03% -226.98 0 Comment
TXmaverick < 20 6/2/2009 Underperform 3W $14.00 -99.95% +126.63% +226.58 1 Comment
marcet 71.75 5/28/2009 Outperform 5Y $13.26 -99.94% +136.74% -236.68 0 Comment
cwimbish 50.69 5/28/2009 Outperform 5Y $11.46 -99.93% +137.91% -237.85 1 Comment
theMovement 81.57 5/21/2009 Outperform 1Y $9.86 -99.92% +140.56% -240.49 0 Comment
unstoppablepeon < 20 10/27/2008 Underperform NS $6.01 -99.88% +152.64% +252.51 1 Comment
moonleg 23.34 10/22/2008 Underperform 1Y $6.45 -99.88% +134.33% +234.21 0 Comment
Chiownknee 76.15 10/20/2008 Outperform 5Y $8.28 -99.91% +126.77% -226.68 0 Comment
IWalker182 21.34 10/17/2008 Outperform NS $8.44 -99.91% +129.69% -229.60 0 Comment
wakoma < 20 10/8/2008 Outperform NS $12.80 -99.94% +124.06% -224.00 1 Comment
istilldontcare 95.62 9/18/2008 Outperform 5Y $17.34 -99.96% +87.91% -187.87 0 Comment
unotsomuch < 20 8/20/2008 Outperform 3Y $19.10 -99.96% +72.54% -172.50 0 Comment
ejtrains 52.96 8/11/2008 Outperform NS $20.00 -99.96% +69.73% -169.69 0 Comment
joetheboss 43.09 6/11/2008 Outperform 3Y $19.57 -99.96% +63.52% -163.49 1 Comment
Sqwii < 20 6/10/2008 Outperform 1Y $20.32 -99.96% +62.01% -161.97 1 Comment
floridabull33 59.84 5/22/2008 Outperform 3M $20.64 -99.96% +58.50% -158.47 0 Comment
GDragonsDad 60.89 5/7/2008 Outperform NS $19.04 -99.96% +56.56% -156.52 0 Comment
TexasGeoTech < 20 4/30/2008 Outperform 3M $19.04 -99.96% +57.91% -157.87 0 Comment
JCASS714 57.21 4/29/2008 Outperform 5Y $18.82 -99.96% +58.53% -158.49 0 Comment
tuckerjack 32.07 4/17/2008 Outperform 5Y $19.60 -99.96% +62.19% -162.15 0 Comment
greengal1 < 20 4/17/2008 Outperform 3Y $19.60 -99.96% +62.19% -162.15 1 Comment
ctnotebo 44.25 4/11/2008 Outperform 3Y $17.56 -99.96% +63.79% -163.75 0 Comment
louisianacoonie 26.19 3/31/2008 Outperform NS $17.95 -99.96% +67.26% -167.22 0 Comment
bengalmomof4 85.83 3/28/2008 Underperform 3M $17.78 -99.96% +66.09% +166.05 0 Comment
chad07gt 23.17 3/27/2008 Outperform NS $17.78 -99.96% +65.87% -165.83 0 Comment
MoltenTofu < 20 3/14/2008 Outperform NS $17.34 -99.96% +67.18% -167.14 0 Comment
AgendaPacific 34.54 3/14/2008 Outperform 3Y $17.34 -99.96% +67.18% -167.14 0 Comment
ToeInsider 32.56 3/10/2008 Outperform NS $16.26 -99.95% +71.00% -170.95 0 Comment
altitudeaddict 30.50 2/28/2008 Outperform 5Y $17.94 -99.96% +61.74% -161.70 0 Comment
tritterup 62.36 2/26/2008 Outperform NS $18.36 -99.96% +60.75% -160.71 0 Comment
arindamd < 20 2/26/2008 Outperform 1Y $17.79 -99.96% +61.77% -161.72 1 Comment
dmgchess 68.75 2/20/2008 Outperform 1Y $17.66 -99.96% +65.66% -165.62 0 Comment
aalvarma < 20 2/20/2008 Outperform 1Y $17.66 -99.96% +65.66% -165.62 0 Comment
thetoxman 79.23 2/14/2008 Outperform 1Y $17.31 -99.96% +62.08% -162.04 0 Comment
thatguy99 30.80 2/5/2008 Outperform 5Y $17.79 -99.96% +63.29% -163.25 0 Comment
mopomi 72.66 1/24/2008 Outperform 5Y $18.76 -99.96% +65.43% -165.39 0 Comment
ATWDLimited < 20 1/23/2008 Outperform NS $18.34 -99.96% +70.98% -170.93 0 Comment
financeman101 < 20 1/17/2008 Outperform NS $16.85 -99.96% +66.66% -166.61 0 Comment
evreeland 27.37 1/16/2008 Outperform 1Y $16.25 -99.95% +62.07% -162.02 0 Comment
Obyss 51.13 12/31/2007 Outperform 3W $19.14 -99.96% +50.90% -150.86 0 Comment
Kenster35OR 26.35 12/24/2007 Outperform 1Y $20.20 -99.96% +49.16% -149.12 0 Comment
StockRakedotcom < 20 12/13/2007 Outperform NS $22.40 -99.97% +50.46% -150.42 0 Comment
everything4less 61.73 12/13/2007 Outperform 1Y $22.40 -99.97% +50.46% -150.42 0 Comment
beachlokal < 20 12/12/2007 Outperform 5Y $23.10 -99.97% +49.26% -149.23 0 Comment
WavingSpices < 20 12/5/2007 Outperform NS $22.10 -99.97% +50.52% -150.48 0 Comment
SaltyGenes 42.88 11/27/2007 Outperform 5Y $22.14 -99.97% +57.43% -157.40 0 Comment
apper < 20 11/21/2007 Outperform 5Y $22.58 -99.97% +57.01% -156.98 0 Comment
ProjectJack < 20 11/5/2007 Outperform 1Y $19.90 -99.96% +48.46% -148.42 0 Comment
IntenseSpider 88.52 10/25/2007 Outperform NS $22.86 -99.97% +48.53% -148.49 0 Comment
tv5cents 95.31 10/23/2007 Outperform 5Y $22.00 -99.97% +47.33% -147.30 0 Comment
JR9901 84.79 10/22/2007 Outperform 5Y $21.85 -99.97% +49.90% -149.87 0 Comment
Garranova 88.61 10/22/2007 Outperform NS $21.85 -99.97% +49.90% -149.87 0 Comment
cleveland503 85.61 10/15/2007 Outperform NS $24.60 -99.97% +42.80% -142.77 0 Comment
ATLDARK31 < 20 10/12/2007 Outperform 5Y $24.50 -99.97% +43.54% -143.51 0 Comment
Results 1 - 99 of 119 : 1 2 Next »

Featured Broker Partners


Advertisement